WetterOnline ( https://www.wetteronline.ch )

Wetter aktuell Feldberg (Gipfel)

Aktuelles Wetter: Feldberg/Schwarzwald (1493m)

6-stündlich | Neueste Meldungen
Ortszeit Temperatur Wetter
Sa, 22.06. 2:00 8.3° C Nebel
Fr, 21.06. 20:00 10.0° C bewölkt
Fr, 21.06. 14:00 13.6° C bewölkt
Fr, 21.06. 8:00 11.6° C bedeckt
Fr, 21.06. 2:00 17.7° C bewölkt
Do, 20.06. 20:00 15.6° C wolkig
Do, 20.06. 14:00 14.9° C bedeckt
Do, 20.06. 8:00 16.8° C bedeckt
Ortszeit Temperatur Wetter
Sa, 22.06. 7:00 8.2° C Nebel
Sa, 22.06. 6:40 8.1° C Nebel
Sa, 22.06. 6:30 8.1° C Nebel
Sa, 22.06. 6:20 8.1° C Nebel
Sa, 22.06. 6:10 8.1° C Nebel
Sa, 22.06. 6:00 8.0° C Nebel
Sa, 22.06. 5:50 8.0° C Nebel
Sa, 22.06. 5:30 7.7° C Nebel
Sa, 22.06. 5:00 7.6° C Nebel
Sa, 22.06. 4:30 7.7° C Nebel
Sa, 22.06. 4:00 7.6° C Nebel
Ortszeit Relative Feuchte Sichtweite
Sa, 22.06. 2:00 100% 100 m
Fr, 21.06. 20:00 99% 1.2 km
Fr, 21.06. 14:00 87% 45 km
Fr, 21.06. 8:00 83% 17 km
Fr, 21.06. 2:00 45% 40 km
Do, 20.06. 20:00 86% 30 km
Do, 20.06. 14:00 90% 23 km
Do, 20.06. 8:00 73% 28 km
Ortszeit Relative Feuchte Sichtweite
Sa, 22.06. 7:00 100% <100 m
Sa, 22.06. 6:40 100% -
Sa, 22.06. 6:30 100% <100 m
Sa, 22.06. 6:20 100% -
Sa, 22.06. 6:10 100% -
Sa, 22.06. 6:00 100% 100 m
Sa, 22.06. 5:50 100% -
Sa, 22.06. 5:30 100% 0.2 km
Sa, 22.06. 5:00 100% 100 m
Sa, 22.06. 4:30 100% <100 m
Sa, 22.06. 4:00 100% <100 m
Ortszeit Niederschlagsmenge Niederschlagsart
Sa, 22.06. 2:00 0.9 l/m2 in 6 Std. Regen
Fr, 21.06. 20:00 8 l/m2 in 12 Std. Regen
Fr, 21.06. 14:00 1 l/m2 in 6 Std. Regen
Fr, 21.06. 8:00 2 l/m2 in 12 Std. Regen
Fr, 21.06. 2:00 0.2 l/m2 in 6 Std. Regen
Do, 20.06. 20:00 0.1 l/m2 in 12 Std. Regen
Do, 20.06. 14:00 0.0 l/m2 in 6 Std. -
Do, 20.06. 8:00 0.0 l/m2 in 12 Std. -
Ortszeit Niederschlagsmenge Niederschlagsart
Sa, 22.06. 7:00 <0.05 l/m2 in 1 Std. Regen
Sa, 22.06. 6:40 keine Meldung -
Sa, 22.06. 6:30 <0.05 l/m2 in 30 Min -
Sa, 22.06. 6:20 keine Meldung -
Sa, 22.06. 6:10 keine Meldung -
Sa, 22.06. 6:00 <0.05 l/m2 in 1 Std. -
Sa, 22.06. 5:50 keine Meldung -
Sa, 22.06. 5:30 <0.05 l/m2 in 30 Min -
Sa, 22.06. 5:00 0.0 l/m2 in 1 Std. -
Sa, 22.06. 4:30 0.0 l/m2 in 30 Min -
Sa, 22.06. 4:00 0.0 l/m2 in 1 Std. -
Ortszeit Stärke Spitze Richtung
km/h Bft. km/h Grad Sektor
Sa, 22.06. 2:00 35 5 54 240° SW
Fr, 21.06. 20:00 40 6 58 240° SW
Fr, 21.06. 14:00 26 4 85 210° SW
Fr, 21.06. 8:00 65 8 90 220° SW
Fr, 21.06. 2:00 11 2 58 140° SO
Do, 20.06. 20:00 26 4 41 200° S
Do, 20.06. 14:00 29 5 47 210° SW
Do, 20.06. 8:00 22 4 44 240° SW
Ortszeit Stärke Spitze Richtung
km/h Bft. km/h Grad Sektor
Sa, 22.06. 7:00 29 5 43 230° SW
Sa, 22.06. 6:40 28 4 - 230° SW
Sa, 22.06. 6:30 26 4 41 240° SW
Sa, 22.06. 6:20 26 4 - 240° SW
Sa, 22.06. 6:10 25 4 - 240° SW
Sa, 22.06. 6:00 31 5 46 240° SW
Sa, 22.06. 5:50 31 5 - 240° SW
Sa, 22.06. 5:30 35 5 46 250° W
Sa, 22.06. 5:00 32 5 47 240° SW
Sa, 22.06. 4:30 35 5 46 260° W
Sa, 22.06. 4:00 36 5 47 250° W
Ortszeit Untergrenze Bedeckung Gattung
total tief tief mittel hoch
Sa, 22.06. 2:00 <30 m 8/8 0/8 - - -
Fr, 21.06. 20:00 30 m 7/8 7/8 - - -
Fr, 21.06. 14:00 330 m 7/8 7/8 - - -
Fr, 21.06. 8:00 1800 m 8/8 8/8 - - -
Fr, 21.06. 2:00 6300 m 7/8 6/8 - - -
Do, 20.06. 20:00 2100 m 8/8 3/8 - - -
Do, 20.06. 14:00 330 m 8/8 8/8 - - -
Do, 20.06. 8:00 1800 m 8/8 8/8 - - -
Ortszeit Bedeckungsgrad in Achtel und Wolkenuntergrenze
Sa, 22.06. 7:00 8(<30m)
Sa, 22.06. 6:40 8
Sa, 22.06. 6:30 7(<30m)
Sa, 22.06. 6:20 7(<30m)
Sa, 22.06. 6:10 7
Sa, 22.06. 6:00 7(<30m)
Sa, 22.06. 5:50 7(<30m)
Sa, 22.06. 5:30 7(<30m)
Sa, 22.06. 5:00 8(<30m)
Sa, 22.06. 4:30 8(<30m) 8(300m)
Sa, 22.06. 4:00 8(<30m) 8(300m)
Ortszeit Stationsdruck (hPa) Tendenz (hPa in 3 Std.)
Sa, 22.06. 2:00 852 + 0,7
Fr, 21.06. 20:00 851 + 0,2
Fr, 21.06. 14:00 852 + 0,5
Fr, 21.06. 8:00 852 + 0,2
Fr, 21.06. 2:00 854 - 0,7
Do, 20.06. 20:00 855 - 0,2
Do, 20.06. 14:00 856 + 0,8
Do, 20.06. 8:00 855 + 0,6
Ortszeit Stationsdruck (hPa) Tendenz (hPa in 3 Std.)
Sa, 22.06. 7:00 851 - 0,3
Sa, 22.06. 6:40 851 keine Meldung
Sa, 22.06. 6:30 851 - 0,6
Sa, 22.06. 6:20 851 keine Meldung
Sa, 22.06. 6:10 851 keine Meldung
Sa, 22.06. 6:00 851 - 0,5
Sa, 22.06. 5:50 851 keine Meldung
Sa, 22.06. 5:30 851 - 0,8
Sa, 22.06. 5:00 851 - 0,7
Sa, 22.06. 4:30 851 - 0,5
Sa, 22.06. 4:00 851 - 0,5
Ortszeit Schneehöhe (cm)
Sa, 22.06. 2:00 0
Fr, 21.06. 20:00 0
Fr, 21.06. 14:00 0
Fr, 21.06. 8:00 0
Fr, 21.06. 2:00 0
Do, 20.06. 20:00 0
Do, 20.06. 14:00 0
Do, 20.06. 8:00 0
Ortszeit Schneehöhe (cm)
Sa, 22.06. 7:00 0
Sa, 22.06. 6:40 -
Sa, 22.06. 6:30 0
Sa, 22.06. 6:20 0
Sa, 22.06. 6:10 -
Sa, 22.06. 6:00 0
Sa, 22.06. 5:50 0
Sa, 22.06. 5:30 0
Sa, 22.06. 5:00 0
Sa, 22.06. 4:30 0
Sa, 22.06. 4:00 0
Link zu dieser Seite / Seite empfehlen

Das Wetter in ...